x

South Hatteras - 225 South Of Cape Hatteras (41002) Wave Buoy

3:50 - Sat 1st Oct 2016 All times are EDT. -4 hours from GMT.

  • Sig Wave height 5.9ft
  • Swell Direction
  • Peak Period 10s
  • Average Period 6s
  • Wind
    16mph, 18mph gusts
  • Sea Temp 83°f
  • Ar Temp 82°f
  • Sea Pressure 1017.4mb
  • South Hatteras - 225 South Of Cape Hatteras
  • South Hatteras - 225 South Of Cape Hatteras

More Historic Weather Station data

Upgrade to MSW Pro to gain access to the past 30 days of data for over 8000 Wavebouys and Weather Stations around the globe.

Join Pro

Comparision Forecast

View Surf forecast
   
Sáb 10/01 3:50 6ft 10s 6s 16 18 mph 1017.4mb 83f 82f
2:50 5ft 11s 6s 16 20 mph 1017.8mb 83f 82f
1:50 5ft 11s 6s 13 18 mph 1018.6mb 83f 81f
12:50 5ft 11s 6s 16 18 mph 1018.8mb 83f 82f
Sex 09/30 11:50 5ft 11s 6s 13 16 mph 1018.8mb 83f 82f
10:50 5ft 9s 7s 13 18 mph 1018.8mb 83f 82f
9:50 4.5ft 11s 6s 13 16 mph 1019mb 83f 82f
8:50 4.5ft 9s 6s 13 16 mph 1018.5mb 83f 82f
7:50 4.5ft 9s 6s 11 16 mph 1018.3mb 83f 82f
6:50 4.5ft 10s 6s 11 16 mph 1017.7mb 83f 82f
5:50 4.5ft 9s 5s 13 16 mph 1018mb 83f 82f
4:50 4.5ft 5s 5s 11 13 mph 1018.2mb 83f 82f
3:50 4.5ft 9s 5s 13 16 mph 1018mb 83f 82f
2:50 4ft 10s 5s 13 18 mph 1017.7mb 83f 82f
1:50 4ft 10s 5s 16 18 mph 1018.2mb 83f 82f
12:50 4ft 10s 5s 16 18 mph 1018.9mb 83f 82f
11:50 4ft 10s 5s 18 22 mph 1019.2mb 83f 82f
10:50 4ft 11s 5s 13 16 mph 1019.5mb 83f 81f
9:50 3.5ft 10s 5s 11 16 mph 1019.1mb 83f 80f
8:50 3.5ft 10s 5s 9 16 mph 1019mb 83f 82f
7:50 4ft 6s 5s 11 13 mph 1018.3mb 83f 81f
6:50 3.5ft 5s 5s 11 13 mph 1018.2mb 83f 82f
5:50 3.5ft 5s 5s 16 18 mph 1017.2mb 83f 81f
4:50 3.5ft 5s 5s 9 11 mph 1017.2mb 83f 81f
3:50 3.5ft 10s 5s 7 11 mph 1017mb 83f 79f
2:50 3.5ft 6s 5s 9 18 mph 1017.2mb 83f 80f
1:50 3.5ft 10s 5s 18 20 mph 1017.3mb 83f 81f
12:50 3.5ft 10s 5s 13 16 mph 1018mb 83f 81f
Qui 09/29 11:50 3.5ft 9s 5s 13 16 mph 1018.4mb 83f 81f
10:50 3.5ft 9s 5s 13 16 mph 1018.5mb 83f 81f
9:50 3.5ft 10s 5s 13 18 mph 1018.3mb 83f 81f
8:50 3.5ft 6s 5s 13 16 mph 1018.1mb 83f 81f
7:50 3.5ft 6s 5s 13 16 mph 1017.5mb 83f 81f
6:50 3.5ft 6s 5s 13 16 mph 1017mb 83f 81f
5:50 3.5ft 6s 5s 11 13 mph 1016.6mb 83f 82f
4:50 3.5ft 11s 5s 11 13 mph 1016.7mb 83f 82f
3:50 3.5ft 5s 5s 11 13 mph 1016.9mb 83f 82f
2:50 3ft 5s 5s 7 9 mph 1017.1mb 83f 81f
1:50 3ft 11s 5s 11 13 mph 1017.4mb 83f 81f
12:50 3ft 11s 5s 7 9 mph 1017.5mb 83f 81f
11:50 3.5ft 5s 5s 7
mph
1018mb 83f 81f
10:50 3.5ft 5s 5s 9
mph
1017.9mb 83f 81f
9:50 3.5ft 5s 5s 7 9 mph 1017.8mb 83f 81f
8:50 3.5ft 5s 5s 9
mph
1017.2mb 83f 80f
7:50 4ft 11s 5s 11 13 mph 1016.7mb 83f 80f
6:50 4ft 11s 5s 13 18 mph 1016.4mb 83f 80f
5:50 4ft 5s 5s 13 18 mph 1016.1mb 83f 80f
4:50 4.5ft 6s 5s 16 18 mph 1015.9mb 83f 80f
3:50 4.5ft 6s 5s 18 20 mph 1016mb 83f 80f
2:50 4.5ft 6s 5s 16 20 mph 1016.2mb 83f 80f
1:50 4.5ft 6s 5s 16 18 mph 1016.5mb 83f 81f
12:50 4.5ft 6s 5s 16 18 mph 1016.6mb 83f 82f
Qua 09/28 11:50 4.5ft 6s 5s 18 22 mph 1016.7mb 83f 81f
10:50 4.5ft 6s 5s 16 18 mph 1017mb 83f 82f
9:50 4.5ft 7s 5s 16 20 mph 1017mb 83f 82f
8:50 4.5ft 6s 5s 16 20 mph 1016.7mb 83f 82f
7:50 4.5ft 6s 5s 16 18 mph 1015.6mb 83f 82f
6:50 5ft 6s 5s 16 18 mph 1015.4mb 83f 82f
5:50 5ft 6s 5s 16 20 mph 1015mb 83f 82f
4:50 4.5ft 6s 5s 16 18 mph 1014.9mb 83f 82f
3:50 4.5ft 5s 5s 18 22 mph 1014.9mb 83f 81f
2:50 4.5ft 11s 5s 18 20 mph 1014.9mb 83f 81f
1:50 4.5ft 11s 5s 18 20 mph 1014.9mb 83f 81f
12:50 4ft 11s 5s 13 18 mph 1015.4mb 83f 80f
11:50 3.5ft 11s 6s 20 29 mph 1015.7mb 83f 81f
10:50 3.5ft 11s 5s 9 11 mph 1015.5mb 83f 82f
9:50 3.5ft 11s 5s 9 11 mph 1015.5mb 83f 82f
8:50 4ft 11s 6s 9 11 mph 1014.9mb 83f 82f
7:50 4.5ft 6s 6s 9
mph
1014mb 83f 81f
6:50 4.5ft 7s 6s 11 13 mph 1013.9mb 83f 79f
5:50 4.5ft 11s 6s 9 11 mph 1013.3mb 83f 81f
4:50 4.5ft 12s 5s 11 16 mph 1013.4mb 83f 79f
3:50 4.5ft 11s 6s 11 13 mph 1012.9mb 83f 82f
2:50 4.5ft 7s 6s 13 18 mph 1012.9mb 83f 82f
1:50 4.5ft 7s 5s 16 18 mph 1012.9mb 83f 82f
12:50 5ft 7s 6s 16 20 mph 1012.8mb 83f 82f
Ter 09/27 11:50 4.5ft 12s 6s 16 20 mph 1012.8mb 83f 82f
10:50 5ft 12s 6s 16 18 mph 1012.7mb 83f 81f
9:50 4.5ft 7s 6s 13 16 mph 1012.3mb 83f 82f
8:50 4.5ft 7s 6s 13 18 mph 1012mb 83f 81f
7:50 5ft 12s 6s 13 16 mph 1011.5mb 83f 81f
6:50 5ft 7s 6s 13 18 mph 1011.5mb 83f 81f
5:50 5.5ft 6s 6s 11 16 mph 1011.2mb 83f 81f
4:50 5ft 12s 6s 9 13 mph 1011.3mb 83f 80f
3:50 5.5ft 7s 6s 9 11 mph 1011.7mb 83f 80f
2:50 6ft 6s 6s 11 13 mph 1011.8mb 83f 79f
1:50 5.5ft 6s 6s 11 13 mph 1012.5mb 83f 80f
12:50 5.5ft 6s 6s 16 29 mph 1013mb 83f 78f
11:50 6ft 7s 6s 11 16 mph 1013.5mb 83f 80f
10:50 6ft 6s 5s 16 18 mph 1013.9mb 83f 80f
9:50 6ft 6s 5s 16 22 mph 1013.9mb 83f 79f